Time;durP1;ratioP1;P1;durP2;ratioP2;P2;SDS_P1;SDS_P2;PMS_P1;PMS_P2;Temp;Humidity;BMP_temperature;BMP_pressure;BME280_temperature;BME280_humidity;BME280_pressure;Samples;Min_cycle;Max_cycle;Signal;HPM_P1;HPM_P2
2023/08/03 00:03:13;;;;;;;4.45;1.90;;;;;;;15.09;91.84;98109.22;10124667;29;20053;-76
2023/08/03 00:08:16;;;;;;;6.65;1.80;;;;;;;15.19;90.57;98109.63;10132939;29;20111;-75
2023/08/03 00:13:20;;;;;;;5.40;1.25;;;;;;;15.17;89.42;98105.47;10118250;29;20052;-76
2023/08/03 00:18:23;;;;;;;4.38;1.10;;;;;;;14.98;87.88;98102.56;10119028;29;20068;-76
2023/08/03 00:23:26;;;;;;;6.75;1.40;;;;;;;15.21;86.41;98102.09;10117795;29;20064;-75
2023/08/03 00:28:30;;;;;;;3.72;1.17;;;;;;;15.18;86.41;98080.06;10114382;29;20048;-76
2023/08/03 00:33:33;;;;;;;5.22;1.05;;;;;;;15.11;86.21;98074.69;10127687;29;20082;-75
2023/08/03 00:38:36;;;;;;;8.80;1.17;;;;;;;15.12;85.41;98087.16;10113280;29;20051;-76
2023/08/03 00:43:41;;;;;;;6.07;1.10;;;;;;;15.35;84.81;98069.66;10105638;29;20052;-76
2023/08/03 00:48:44;;;;;;;4.43;1.17;;;;;;;15.21;84.72;98071.53;10112062;29;20425;-76
2023/08/03 00:53:47;;;;;;;5.60;1.10;;;;;;;15.19;83.94;98063.66;10115776;29;20056;-76
2023/08/03 00:58:52;;;;;;;3.58;0.95;;;;;;;15.27;84.11;98073.41;10115122;29;20051;-76
2023/08/03 01:03:55;;;;;;;3.80;0.93;;;;;;;15.10;84.76;98067.59;10114839;29;20202;-76
2023/08/03 01:09:00;;;;;;;1.00;0.70;;;;;;;14.98;86.09;98044.97;10112099;29;20048;-76
2023/08/03 01:14:04;;;;;;;2.05;1.02;;;;;;;14.97;87.51;98062.19;10112131;29;20057;-75
2023/08/03 01:19:10;;;;;;;6.95;1.35;;;;;;;14.81;89.79;98034.56;10110584;29;20053;-76
2023/08/03 01:24:14;;;;;;;9.60;1.75;;;;;;;14.93;90.10;98025.84;10101726;29;20224;-76
2023/08/03 01:29:17;;;;;;;5.95;2.10;;;;;;;14.75;90.00;98023.75;10116464;29;20056;-76
2023/08/03 01:34:19;;;;;;;4.30;2.00;;;;;;;14.52;90.96;98021.47;10109390;29;20460;-75
2023/08/03 01:39:26;;;;;;;8.73;1.85;;;;;;;14.59;90.80;98027.72;10106387;29;20115;-75
2023/08/03 01:44:30;;;;;;;4.45;1.35;;;;;;;14.27;93.45;98023.91;10114902;29;20167;-75
2023/08/03 01:49:34;;;;;;;3.65;1.20;;;;;;;14.37;93.48;98008.13;10109712;29;20044;-75
2023/08/03 01:54:39;;;;;;;3.30;1.20;;;;;;;13.86;100.00;98006.81;10112694;29;20051;-77
2023/08/03 01:59:41;;;;;;;4.95;1.15;;;;;;;13.87;98.62;98000.34;10112881;29;20928;-77
2023/08/03 02:04:44;;;;;;;5.97;1.67;;;;;;;14.22;96.22;97997.53;10121908;29;20044;-76
2023/08/03 02:09:49;;;;;;;3.13;1.40;;;;;;;14.14;96.62;98009.34;10116314;29;20052;-77
2023/08/03 02:14:52;;;;;;;3.53;1.02;;;;;;;13.59;100.00;98007.75;10113014;29;20151;-76
2023/08/03 02:19:57;;;;;;;3.05;1.00;;;;;;;13.83;100.00;98001.81;10111665;29;20059;-78
2023/08/03 02:25:01;;;;;;;4.50;1.63;;;;;;;13.81;100.00;98011.97;10112291;29;20052;-78
2023/08/03 02:30:04;;;;;;;3.92;1.10;;;;;;;13.67;100.00;98008.41;10105192;29;20158;-77
2023/08/03 02:35:11;;;;;;;1.42;0.93;;;;;;;13.63;100.00;98014.38;10109509;29;20171;-77
2023/08/03 02:40:17;;;;;;;5.63;1.10;;;;;;;13.89;100.00;98005.56;10120046;29;20056;-77
2023/08/03 02:45:21;;;;;;;4.00;1.17;;;;;;;13.74;100.00;98021.06;10124873;29;22271;-76
2023/08/03 02:50:26;;;;;;;5.93;1.00;;;;;;;13.48;100.00;98031.56;10122175;29;20058;-76
2023/08/03 02:55:35;;;;;;;2.85;1.33;;;;;;;13.76;100.00;98035.19;10119778;29;20534;-76
2023/08/03 03:00:39;;;;;;;2.50;1.42;;;;;;;13.94;100.00;98040.88;10125405;29;20883;-76
2023/08/03 03:05:45;;;;;;;2.55;1.33;;;;;;;13.71;100.00;98043.88;10129204;29;20409;-75
2023/08/03 03:10:52;;;;;;;5.22;1.58;;;;;;;13.63;100.00;98053.00;10112237;29;20139;-76
2023/08/03 03:15:55;;;;;;;1.95;1.70;;;;;;;13.72;100.00;98061.75;10113427;29;20532;-76
2023/08/03 03:20:59;;;;;;;3.35;2.13;;;;;;;13.82;100.00;98056.81;10105059;29;20881;-76
2023/08/03 03:26:03;;;;;;;2.63;1.80;;;;;;;13.79;100.00;98081.47;10111969;29;20131;-76
2023/08/03 03:31:06;;;;;;;4.85;2.78;;;;;;;14.06;99.84;98087.00;10121505;29;20055;-75
2023/08/03 03:36:09;;;;;;;4.05;2.55;;;;;;;13.96;100.00;98083.84;10118723;29;20059;-76
2023/08/03 03:41:13;;;;;;;4.50;2.97;;;;;;;13.77;100.00;98080.88;10119032;29;20578;-76
2023/08/03 03:46:19;;;;;;;4.13;2.45;;;;;;;13.68;100.00;98084.75;10119570;29;20060;-76
2023/08/03 03:51:22;;;;;;;3.38;2.33;;;;;;;13.45;100.00;98076.97;10118118;29;20059;-76
2023/08/03 03:56:31;;;;;;;2.67;2.50;;;;;;;13.70;100.00;98096.19;10137726;29;20165;-76
2023/08/03 04:01:34;;;;;;;5.15;3.08;;;;;;;13.74;100.00;98104.69;10119246;29;20049;-76
2023/08/03 04:06:38;;;;;;;5.30;3.25;;;;;;;13.63;100.00;98109.66;10114750;29;20132;-77
2023/08/03 04:11:43;;;;;;;7.38;3.47;;;;;;;13.67;100.00;98120.88;10117244;29;20174;-76
2023/08/03 04:16:46;;;;;;;6.50;3.70;;;;;;;13.47;100.00;98134.25;10110201;29;20053;-76
2023/08/03 04:21:50;;;;;;;5.28;2.88;;;;;;;13.58;100.00;98149.03;10115663;29;20056;-76
2023/08/03 04:26:54;;;;;;;6.30;3.15;;;;;;;13.81;100.00;98152.28;10117346;29;20056;-76
2023/08/03 04:31:59;;;;;;;5.93;3.10;;;;;;;13.59;100.00;98150.69;10114954;29;20048;-76
2023/08/03 04:37:02;;;;;;;9.15;2.90;;;;;;;13.94;100.00;98155.03;10109916;29;20071;-75
2023/08/03 04:42:08;;;;;;;4.20;2.60;;;;;;;13.74;100.00;98182.94;10117294;29;20736;-77
2023/08/03 04:47:13;;;;;;;7.57;3.17;;;;;;;13.86;100.00;98159.78;10115738;29;20052;-77
2023/08/03 04:52:17;;;;;;;7.03;3.70;;;;;;;13.85;100.00;98168.88;10110522;29;22172;-76
2023/08/03 04:57:21;;;;;;;8.52;4.13;;;;;;;13.83;100.00;98192.56;10114108;29;20079;-75
2023/08/03 05:02:24;;;;;;;4.30;2.78;;;;;;;13.76;100.00;98160.13;10115823;29;20054;-76
2023/08/03 05:07:27;;;;;;;7.70;4.20;;;;;;;13.89;100.00;98167.47;10111893;29;20134;-76
2023/08/03 05:12:32;;;;;;;4.57;3.55;;;;;;;13.84;100.00;98186.13;10111119;29;20055;-76
2023/08/03 05:17:35;;;;;;;6.18;3.50;;;;;;;13.91;100.00;98174.34;10104211;29;20116;-76
2023/08/03 05:22:38;;;;;;;5.10;2.85;;;;;;;13.75;100.00;98179.22;10119288;29;20052;-76
2023/08/03 05:27:42;;;;;;;10.23;3.38;;;;;;;13.56;100.00;98153.78;10109661;29;20056;-75
2023/08/03 05:32:45;;;;;;;4.97;3.22;;;;;;;14.07;98.72;98197.47;10109116;29;20136;-75
2023/08/03 05:37:48;;;;;;;11.02;3.63;;;;;;;14.16;98.10;98208.94;10115928;29;20709;-75
2023/08/03 05:42:52;;;;;;;6.43;3.05;;;;;;;14.25;96.11;98201.47;10108439;29;20048;-75
2023/08/03 05:47:55;;;;;;;8.88;2.60;;;;;;;14.30;95.09;98217.91;10110366;29;20048;-75
2023/08/03 05:52:58;;;;;;;5.70;2.95;;;;;;;14.23;96.45;98200.84;10113438;29;20063;-75
2023/08/03 05:58:02;;;;;;;3.33;2.28;;;;;;;14.33;95.62;98206.72;10117267;29;20052;-74
2023/08/03 06:03:05;;;;;;;1.73;1.63;;;;;;;14.54;94.15;98233.63;10113003;29;20053;-75
2023/08/03 06:08:12;;;;;;;6.32;2.53;;;;;;;14.75;93.07;98211.03;10106857;29;20136;-74
2023/08/03 06:13:18;;;;;;;2.75;1.83;;;;;;;14.15;94.24;98215.34;10105955;29;20156;-75
2023/08/03 06:18:22;;;;;;;6.22;2.30;;;;;;;14.44;95.26;98235.88;10099512;29;20052;-76
2023/08/03 06:23:27;;;;;;;3.80;2.08;;;;;;;14.12;95.08;98231.94;10102347;29;20052;-76
2023/08/03 06:28:32;;;;;;;5.22;2.60;;;;;;;14.24;97.17;98235.75;10106203;29;20134;-77
2023/08/03 06:33:35;;;;;;;3.05;2.60;;;;;;;13.55;100.00;98263.53;10110313;29;20154;-76
2023/08/03 06:38:38;;;;;;;5.95;3.30;;;;;;;13.60;100.00;98273.72;10110395;29;20444;-77
2023/08/03 06:43:43;;;;;;;6.00;2.78;;;;;;;13.59;100.00;98282.84;10113520;29;20535;-76
2023/08/03 06:48:46;;;;;;;7.20;2.90;;;;;;;13.98;100.00;98258.03;10114051;29;20052;-77
2023/08/03 06:53:50;;;;;;;4.80;3.28;;;;;;;13.72;100.00;98269.47;10109732;29;20075;-76
2023/08/03 06:58:54;;;;;;;5.40;3.42;;;;;;;14.01;100.00;98267.59;10114806;29;20052;-77
2023/08/03 07:03:57;;;;;;;4.90;2.80;;;;;;;13.79;100.00;98270.34;10113567;29;20045;-76
2023/08/03 07:09:00;;;;;;;4.20;3.72;;;;;;;14.14;100.00;98290.09;10103662;29;20128;-76
2023/08/03 07:14:04;;;;;;;2.67;2.13;;;;;;;14.03;100.00;98301.44;10099212;29;20243;-76
2023/08/03 07:19:10;;;;;;;6.28;2.80;;;;;;;14.44;98.79;98305.25;10114501;29;20100;-75
2023/08/03 07:24:13;;;;;;;2.80;2.50;;;;;;;14.49;99.19;98305.50;10109033;29;20056;-76
2023/08/03 07:29:17;;;;;;;3.03;2.13;;;;;;;14.20;100.00;98317.34;10119486;29;21186;-76
2023/08/03 07:34:20;;;;;;;2.90;2.17;;;;;;;13.98;100.00;98328.19;10117231;29;20059;-76
2023/08/03 07:39:23;;;;;;;4.95;3.38;;;;;;;14.14;100.00;98330.59;10119172;29;20098;-76
2023/08/03 07:44:28;;;;;;;5.15;3.15;;;;;;;13.75;100.00;98333.84;10116644;29;20081;-75
2023/08/03 07:49:54;;;;;;;4.63;2.83;;;;;;;13.78;100.00;98359.59;10120615;29;20075;-76
2023/08/03 07:54:57;;;;;;;6.35;3.88;;;;;;;14.04;100.00;98358.97;10116943;29;20048;-76
2023/08/03 08:00:03;;;;;;;3.58;3.15;;;;;;;14.19;100.00;98383.19;10116859;29;20055;-76
2023/08/03 08:05:13;;;;;;;3.72;2.63;;;;;;;13.88;100.00;98387.09;10117122;29;20134;-76
2023/08/03 08:10:17;;;;;;;3.40;3.05;;;;;;;14.25;100.00;98377.81;10120032;29;20052;-75
2023/08/03 08:15:21;;;;;;;4.07;3.70;;;;;;;14.12;100.00;98380.41;10120150;29;20045;-76
2023/08/03 08:20:24;;;;;;;4.70;2.60;;;;;;;14.08;100.00;98400.75;10115743;29;20143;-76
2023/08/03 08:25:27;;;;;;;4.25;2.60;;;;;;;14.14;100.00;98410.75;10119021;29;20051;-77
2023/08/03 08:30:31;;;;;;;2.38;2.00;;;;;;;14.19;100.00;98421.81;10122896;29;20523;-76
2023/08/03 08:35:34;;;;;;;1.50;1.40;;;;;;;14.20;100.00;98415.38;10113321;29;20055;-77
2023/08/03 08:40:37;;;;;;;2.35;1.80;;;;;;;14.20;100.00;98426.16;10115986;29;20051;-77
2023/08/03 08:45:41;;;;;;;3.55;2.85;;;;;;;14.35;100.00;98408.03;10115704;29;20079;-76
2023/08/03 08:50:46;;;;;;;3.47;3.15;;;;;;;14.40;100.00;98436.31;10113964;29;20052;-77
2023/08/03 08:55:52;;;;;;;2.22;2.08;;;;;;;14.25;100.00;98464.22;10117361;29;20539;-77
2023/08/03 09:01:05;;;;;;;2.92;2.65;;;;;;;14.22;100.00;98448.41;10110918;29;20040;-76
2023/08/03 09:06:08;;;;;;;2.67;2.20;;;;;;;13.92;100.00;98458.53;10116754;29;20449;-76
2023/08/03 09:11:14;;;;;;;6.05;3.03;;;;;;;14.52;100.00;98462.59;10114914;29;20139;-76
2023/08/03 09:16:26;;;;;;;3.45;3.00;;;;;;;14.37;100.00;98494.22;10125490;29;20143;-75
2023/08/03 09:21:29;;;;;;;4.55;4.15;;;;;;;14.63;100.00;98477.44;10130358;29;20694;-77
2023/08/03 09:26:35;;;;;;;4.38;3.30;;;;;;;14.71;100.00;98496.19;10125438;29;20080;-77
2023/08/03 09:31:43;;;;;;;2.75;2.50;;;;;;;14.31;100.00;98495.00;10122022;29;20048;-77
2023/08/03 09:36:49;;;;;;;4.95;4.15;;;;;;;14.50;100.00;98507.03;10126827;29;20079;-76
2023/08/03 09:42:11;;;;;;;;;;;;;;;14.59;100.00;98498.63;10128088;29;20547;-77
2023/08/03 09:47:35;;;;;;;6.20;5.22;;;;;;;14.54;100.00;98502.94;10130789;29;19927;-76
2023/08/03 09:52:44;;;;;;;4.88;4.47;;;;;;;14.41;100.00;98521.72;10125432;29;20048;-77
2023/08/03 09:57:59;;;;;;;4.65;4.35;;;;;;;14.91;100.00;98527.94;10122909;29;20132;-75
2023/08/03 10:03:09;;;;;;;4.50;3.97;;;;;;;14.56;100.00;98525.16;10115957;29;20063;-77
2023/08/03 10:08:18;;;;;;;3.80;3.45;;;;;;;14.95;100.00;98543.56;10112973;29;20056;-76
2023/08/03 10:13:22;;;;;;;5.03;4.07;;;;;;;15.30;100.00;98564.38;10112191;29;20055;-75
2023/08/03 10:18:27;;;;;;;6.25;4.75;;;;;;;15.40;99.40;98537.84;10113597;29;20052;-75
2023/08/03 10:23:35;;;;;;;5.35;4.93;;;;;;;15.84;95.90;98548.22;10115159;29;20071;-76
2023/08/03 10:28:46;;;;;;;5.22;4.82;;;;;;;15.80;96.12;98578.63;10116270;29;20059;-76
2023/08/03 10:34:07;;;;;;;5.37;4.87;;;;;;;15.35;96.21;98570.88;10111142;29;20124;-76
2023/08/03 10:39:14;;;;;;;5.35;4.80;;;;;;;15.04;99.71;98579.41;10116590;29;20055;-75
2023/08/03 10:44:24;;;;;;;5.85;5.18;;;;;;;15.12;99.25;98579.25;10117593;29;20049;-76
2023/08/03 10:49:52;;;;;;;5.18;4.75;;;;;;;15.12;99.11;98576.53;10112304;29;20045;-76
2023/08/03 10:54:56;;;;;;;6.45;5.82;;;;;;;15.65;96.30;98576.03;10107178;29;20063;-76
2023/08/03 11:00:02;;;;;;;6.75;6.15;;;;;;;15.94;96.75;98585.75;10112757;29;20048;-75
2023/08/03 11:05:10;;;;;;;7.50;3.95;;;;;;;15.40;97.35;98592.75;10124115;29;20492;-75
2023/08/03 11:10:14;;;;;;;5.78;5.05;;;;;;;15.74;96.20;98609.19;10121055;29;20057;-76
2023/08/03 11:15:18;;;;;;;6.65;5.75;;;;;;;15.48;98.52;98626.94;10126444;29;20041;-75
2023/08/03 11:20:23;;;;;;;9.35;7.10;;;;;;;15.61;98.87;98623.50;10126742;29;20052;-76
2023/08/03 11:25:26;;;;;;;6.80;5.03;;;;;;;14.78;100.00;98634.06;10124932;29;20055;-75
2023/08/03 11:30:29;;;;;;;9.45;7.22;;;;;;;15.19;100.00;98641.47;10125579;29;20052;-75
2023/08/03 11:35:33;;;;;;;7.28;6.57;;;;;;;14.81;100.00;98649.91;10124780;29;20048;-76
2023/08/03 11:40:37;;;;;;;8.10;5.88;;;;;;;15.12;100.00;98654.97;10128435;29;20052;-75
2023/08/03 11:45:44;;;;;;;9.75;7.10;;;;;;;14.77;100.00;98668.38;10124009;29;20389;-75
2023/08/03 11:50:48;;;;;;;9.30;8.48;;;;;;;15.25;100.00;98679.41;10123824;29;20052;-77
2023/08/03 11:55:52;;;;;;;7.45;6.53;;;;;;;15.01;100.00;98674.41;10122663;29;20075;-76
2023/08/03 12:00:58;;;;;;;8.25;7.47;;;;;;;15.11;100.00;98690.28;10121761;29;20082;-76
2023/08/03 12:06:05;;;;;;;7.45;6.78;;;;;;;15.39;100.00;98691.19;10122585;29;20186;-76
2023/08/03 12:11:15;;;;;;;9.43;5.38;;;;;;;15.10;100.00;98704.84;10112110;29;20132;-76
2023/08/03 12:16:19;;;;;;;7.90;6.00;;;;;;;15.05;100.00;98702.72;10135198;29;20048;-76
2023/08/03 12:21:23;;;;;;;4.75;4.30;;;;;;;14.96;100.00;98706.59;10110721;29;20053;-76
2023/08/03 12:26:26;;;;;;;5.75;5.25;;;;;;;15.10;100.00;98726.50;10118017;29;20053;-77
2023/08/03 12:31:30;;;;;;;4.68;4.28;;;;;;;15.18;100.00;98732.59;10120947;29;20047;-77
2023/08/03 12:36:34;;;;;;;6.53;5.93;;;;;;;15.14;100.00;98738.56;10125818;29;20103;-77
2023/08/03 12:41:37;;;;;;;8.88;8.00;;;;;;;15.63;100.00;98733.22;10118269;29;20079;-76
2023/08/03 12:46:40;;;;;;;7.40;6.65;;;;;;;15.58;100.00;98748.38;10119736;29;20060;-76
2023/08/03 12:51:44;;;;;;;7.82;7.13;;;;;;;15.31;100.00;98752.69;10116241;29;20049;-76
2023/08/03 12:56:47;;;;;;;7.85;7.13;;;;;;;15.47;100.00;98768.69;10119670;29;20048;-76
2023/08/03 13:01:50;;;;;;;9.90;9.10;;;;;;;15.75;100.00;98773.28;10119921;29;20053;-76
2023/08/03 13:06:55;;;;;;;11.05;10.00;;;;;;;15.69;100.00;98789.25;10112060;29;20544;-76
2023/08/03 13:11:58;;;;;;;12.70;11.55;;;;;;;15.56;100.00;98796.44;10122256;29;20613;-76
2023/08/03 13:17:01;;;;;;;9.15;5.68;;;;;;;15.65;99.63;98812.31;10126370;29;21300;-75
2023/08/03 13:22:05;;;;;;;9.77;8.75;;;;;;;16.00;99.17;98825.94;10122835;29;20056;-75
2023/08/03 13:27:12;;;;;;;8.13;7.30;;;;;;;15.91;97.79;98840.66;10115297;29;20062;-76
2023/08/03 13:32:15;;;;;;;11.13;10.13;;;;;;;16.31;96.63;98843.66;10116832;29;20048;-76
2023/08/03 13:37:20;;;;;;;9.00;7.75;;;;;;;17.15;93.09;98848.03;10117177;29;20052;-76
2023/08/03 13:42:23;;;;;;;10.00;6.97;;;;;;;18.09;89.48;98842.50;10115749;29;20052;-75
2023/08/03 13:47:25;;;;;;;7.30;6.60;;;;;;;18.47;89.44;98854.59;10115448;29;20047;-76
2023/08/03 13:52:30;;;;;;;6.55;5.88;;;;;;;18.37;88.61;98868.59;10112014;29;20060;-76
2023/08/03 13:57:33;;;;;;;6.00;4.50;;;;;;;18.31;86.08;98859.41;10112694;29;20048;-75
2023/08/03 14:02:37;;;;;;;6.88;3.97;;;;;;;18.79;85.46;98853.69;10108212;29;20110;-76
2023/08/03 14:07:44;;;;;;;5.80;4.50;;;;;;;18.18;85.70;98880.34;10098687;29;20605;-76
2023/08/03 14:12:51;;;;;;;5.80;3.63;;;;;;;18.00;86.38;98875.56;10099730;29;20130;-75
2023/08/03 14:17:57;;;;;;;5.07;4.57;;;;;;;19.08;83.64;98877.84;10107740;29;20136;-75
2023/08/03 14:23:01;;;;;;;5.70;2.45;;;;;;;19.20;79.59;98868.78;10106851;29;20044;-76
2023/08/03 14:28:06;;;;;;;5.03;2.88;;;;;;;18.46;81.24;98874.69;10110159;29;20291;-76
2023/08/03 14:33:13;;;;;;;3.05;1.90;;;;;;;19.18;79.37;98872.78;10114015;29;20056;-76
2023/08/03 14:38:17;;;;;;;2.72;1.75;;;;;;;19.49;74.62;98884.75;10125789;29;20188;-76
2023/08/03 14:43:20;;;;;;;10.60;2.33;;;;;;;19.23;75.65;98902.91;10122693;29;20167;-76
2023/08/03 14:48:23;;;;;;;4.28;2.25;;;;;;;18.45;79.28;98916.47;10118177;29;20582;-77
2023/08/03 14:53:27;;;;;;;4.60;2.47;;;;;;;18.27;77.63;98936.16;10119032;29;20516;-77
2023/08/03 14:58:32;;;;;;;3.13;2.50;;;;;;;19.17;75.72;98925.50;10119042;29;20069;-77
2023/08/03 15:03:35;;;;;;;3.45;1.80;;;;;;;19.26;74.01;98923.41;10120169;29;20719;-77
2023/08/03 15:08:42;;;;;;;3.35;2.08;;;;;;;19.33;71.82;98959.59;10123382;29;20064;-76
2023/08/03 15:13:45;;;;;;;3.25;2.20;;;;;;;19.43;73.69;98949.06;10134405;29;20578;-77
2023/08/03 15:18:48;;;;;;;3.47;2.10;;;;;;;19.34;73.31;98964.00;10120840;29;20056;-77
2023/08/03 15:23:58;;;;;;;4.43;2.03;;;;;;;20.32;69.40;98966.34;10123829;29;20068;-77
2023/08/03 15:29:04;;;;;;;2.65;1.60;;;;;;;19.95;69.86;98955.28;10124247;29;20071;-77
2023/08/03 15:34:10;;;;;;;3.38;2.03;;;;;;;19.76;69.76;98967.97;10128656;29;20088;-76
2023/08/03 15:39:15;;;;;;;3.30;2.00;;;;;;;19.05;72.45;98960.72;10123503;29;20540;-77
2023/08/03 15:44:22;;;;;;;3.70;2.88;;;;;;;18.69;73.51;98978.34;10117619;29;20063;-77
2023/08/03 15:49:29;;;;;;;2.00;1.42;;;;;;;18.60;72.66;98962.50;10126916;29;20056;-77
2023/08/03 15:54:35;;;;;;;2.40;1.40;;;;;;;19.50;70.71;98959.91;10126167;29;20048;-77
2023/08/03 15:59:48;;;;;;;1.73;0.73;;;;;;;19.67;68.71;98963.84;10117650;29;20060;-77
2023/08/03 16:04:54;;;;;;;1.27;0.73;;;;;;;19.79;68.27;98981.16;10107720;29;21652;-76
2023/08/03 16:09:58;;;;;;;1.70;0.98;;;;;;;19.84;69.04;98984.06;10113969;29;20052;-76
2023/08/03 16:15:01;;;;;;;1.92;0.98;;;;;;;19.28;70.20;98997.50;10110897;29;20052;-76
2023/08/03 16:20:05;;;;;;;1.80;1.00;;;;;;;18.46;73.67;99016.88;10125430;29;20060;-76
2023/08/03 16:25:10;;;;;;;1.58;1.48;;;;;;;19.39;71.65;99015.88;10122368;29;20052;-77
2023/08/03 16:30:13;;;;;;;1.58;1.20;;;;;;;18.91;73.60;99033.38;10123636;29;20582;-75
2023/08/03 16:35:16;;;;;;;2.95;1.20;;;;;;;17.95;76.26;99041.00;10126833;29;20060;-76
2023/08/03 16:40:21;;;;;;;2.47;1.38;;;;;;;18.71;74.12;99041.53;10124346;29;20153;-75
2023/08/03 16:45:24;;;;;;;6.18;1.23;;;;;;;18.21;75.86;99046.53;10125542;29;20056;-76
2023/08/03 16:50:27;;;;;;;3.85;1.30;;;;;;;18.08;77.08;99052.78;10113831;29;20061;-76
2023/08/03 16:55:31;;;;;;;1.77;1.35;;;;;;;17.73;79.73;99059.31;10111110;29;20098;-76
2023/08/03 17:00:34;;;;;;;2.00;1.40;;;;;;;17.67;79.83;99066.41;10107286;29;20056;-76
2023/08/03 17:05:38;;;;;;;3.25;1.55;;;;;;;17.26;86.50;99078.09;10111921;29;20131;-76
2023/08/03 17:10:42;;;;;;;2.65;1.85;;;;;;;16.03;99.45;99098.22;10127415;29;20068;-76
2023/08/03 17:15:45;;;;;;;4.80;2.28;;;;;;;16.07;100.00;99108.50;10108906;29;20055;-77
2023/08/03 17:20:56;;;;;;;4.40;2.58;;;;;;;16.25;100.00;99107.22;10473703;27;20423;-76
2023/08/03 17:25:59;;;;;;;3.22;2.92;;;;;;;16.40;100.00;99116.19;10442208;28;20056;-76
2023/08/03 17:31:03;;;;;;;7.47;3.00;;;;;;;16.91;99.66;99129.56;10434241;28;20040;-77
2023/08/03 17:36:10;;;;;;;5.38;2.15;;;;;;;16.76;99.49;99147.78;10431254;28;20057;-76
2023/08/03 17:41:13;;;;;;;4.72;2.10;;;;;;;16.41;99.67;99144.94;10434843;28;20048;-75
2023/08/03 17:46:17;;;;;;;4.90;2.90;;;;;;;16.44;99.00;99160.81;10437019;28;20048;-76
2023/08/03 17:51:21;;;;;;;5.03;2.35;;;;;;;16.33;95.96;99183.00;10434534;28;21214;-74
2023/08/03 17:56:24;;;;;;;3.85;2.40;;;;;;;16.58;95.90;99183.47;10438914;28;20560;-75
2023/08/03 18:01:27;;;;;;;7.75;2.70;;;;;;;16.72;94.09;99193.41;10437089;28;20049;-76
2023/08/03 18:06:31;;;;;;;4.97;2.70;;;;;;;16.41;95.19;99217.28;10435518;28;20049;-74
2023/08/03 18:11:34;;;;;;;4.43;2.90;;;;;;;16.18;96.42;99223.63;10438796;28;20731;-75
2023/08/03 18:16:37;;;;;;;4.20;2.70;;;;;;;16.49;94.10;99231.53;10437986;28;20045;-75
2023/08/03 18:21:41;;;;;;;8.35;3.63;;;;;;;16.28;93.79;99242.31;10429702;28;20641;-75
2023/08/03 18:26:46;;;;;;;6.25;2.40;;;;;;;16.30;91.45;99254.66;10427236;28;20059;-76
2023/08/03 18:31:49;;;;;;;3.60;2.60;;;;;;;15.77;91.58;99266.56;10406090;28;20056;-76
2023/08/03 18:36:53;;;;;;;3.17;2.50;;;;;;;15.37;92.88;99280.31;10398714;28;20075;-75
2023/08/03 18:41:57;;;;;;;7.68;3.03;;;;;;;15.64;91.09;99292.44;10399959;28;20080;-77
2023/08/03 18:46:59;;;;;;;6.55;2.20;;;;;;;15.37;91.40;99310.09;10396906;28;20100;-77
2023/08/03 18:52:05;;;;;;;9.23;2.97;;;;;;;15.24;92.36;99316.06;10396912;28;20052;-76
2023/08/03 18:57:08;;;;;;;7.15;3.10;;;;;;;15.67;90.02;99327.25;10405274;28;20056;-77
2023/08/03 19:02:11;;;;;;;7.05;3.10;;;;;;;15.92;90.00;99344.09;10428625;28;20056;-76
2023/08/03 19:07:18;;;;;;;8.77;3.20;;;;;;;15.54;90.02;99350.53;10435697;28;21282;-76
2023/08/03 19:12:22;;;;;;;7.80;2.85;;;;;;;15.66;90.62;99371.59;10436793;28;20392;-76
2023/08/03 19:17:24;;;;;;;5.35;2.60;;;;;;;15.58;90.47;99370.81;10438401;28;20741;-77
2023/08/03 19:22:29;;;;;;;5.88;2.40;;;;;;;15.67;90.08;99378.69;10439861;28;21018;-77
2023/08/03 19:27:33;;;;;;;3.95;2.47;;;;;;;15.44;88.89;99404.91;10438537;28;20060;-75
2023/08/03 19:32:36;;;;;;;6.63;2.58;;;;;;;15.40;90.75;99415.25;10431692;28;20118;-77
2023/08/03 19:37:40;;;;;;;3.95;2.35;;;;;;;15.51;89.56;99427.53;10440102;28;20044;-76
2023/08/03 19:42:43;;;;;;;5.03;2.65;;;;;;;15.85;88.82;99435.25;10433496;28;20059;-76
2023/08/03 19:47:46;;;;;;;6.78;3.10;;;;;;;15.22;90.07;99436.28;10437634;28;20688;-77
2023/08/03 19:52:50;;;;;;;4.43;2.40;;;;;;;15.16;90.22;99458.63;10439240;28;20051;-77
2023/08/03 19:57:56;;;;;;;7.50;3.05;;;;;;;15.33;88.86;99460.25;10443368;28;20161;-75
2023/08/03 20:03:02;;;;;;;8.18;3.55;;;;;;;14.90;91.66;99473.28;10434988;28;20122;-77
2023/08/03 20:08:09;;;;;;;12.95;3.80;;;;;;;14.65;94.94;99486.03;10440009;28;20500;-76
2023/08/03 20:13:15;;;;;;;9.75;3.97;;;;;;;14.71;97.11;99492.63;10436823;28;21352;-77
2023/08/03 20:18:18;;;;;;;11.25;4.65;;;;;;;14.64;98.11;99499.72;10432814;28;20119;-76
2023/08/03 20:23:25;;;;;;;10.70;4.90;;;;;;;14.86;96.72;99511.66;10428472;28;20055;-75
2023/08/03 20:28:28;;;;;;;14.07;5.82;;;;;;;14.56;98.53;99514.94;10430753;28;20416;-76
2023/08/03 20:33:31;;;;;;;9.90;6.03;;;;;;;14.57;98.30;99516.63;10429268;28;20428;-76
2023/08/03 20:38:35;;;;;;;10.95;5.28;;;;;;;14.66;98.17;99528.25;10427065;28;20048;-77
2023/08/03 20:43:39;;;;;;;8.15;4.35;;;;;;;14.45;98.87;99545.00;10429144;28;20048;-76
2023/08/03 20:48:42;;;;;;;8.68;6.03;;;;;;;14.59;98.68;99557.00;10435484;28;20053;-75
2023/08/03 20:53:46;;;;;;;12.15;6.60;;;;;;;14.71;97.75;99558.31;10439305;28;20071;-76
2023/08/03 20:58:49;;;;;;;13.40;5.90;;;;;;;14.48;98.21;99568.13;10438861;28;20979;-76
2023/08/03 21:03:52;;;;;;;10.10;6.10;;;;;;;14.33;99.94;99579.59;10456754;28;20059;-76
2023/08/03 21:08:56;;;;;;;11.93;6.47;;;;;;;14.43;99.91;99586.75;10450253;28;20912;-76
2023/08/03 21:13:59;;;;;;;14.50;6.78;;;;;;;14.69;98.98;99590.09;10450968;28;20057;-76
2023/08/03 21:19:03;;;;;;;16.05;7.80;;;;;;;14.52;99.44;99596.53;10450242;28;20040;-76
2023/08/03 21:24:10;;;;;;;13.93;9.13;;;;;;;14.33;100.00;99594.97;10446493;28;20501;-76
2023/08/03 21:29:13;;;;;;;18.88;9.15;;;;;;;14.66;98.39;99585.03;10433588;28;20427;-76
2023/08/03 21:34:15;;;;;;;18.52;11.00;;;;;;;14.88;97.38;99601.56;10440600;28;20041;-75
2023/08/03 21:39:20;;;;;;;20.30;10.70;;;;;;;14.80;97.08;99603.25;10440446;28;20423;-76
2023/08/03 21:44:23;;;;;;;18.48;11.15;;;;;;;14.90;96.01;99605.78;10446093;28;20047;-76
2023/08/03 21:49:28;;;;;;;19.73;11.10;;;;;;;14.69;97.05;99611.69;10431932;28;20047;-76
2023/08/03 21:54:32;;;;;;;14.75;9.75;;;;;;;14.55;96.80;99609.69;10429070;28;20049;-77
2023/08/03 21:59:35;;;;;;;17.85;9.65;;;;;;;14.79;96.05;99620.50;10430962;28;20147;-75
2023/08/03 22:04:38;;;;;;;23.65;10.23;;;;;;;14.78;95.56;99620.66;10438416;28;20040;-76
2023/08/03 22:09:42;;;;;;;20.17;8.95;;;;;;;14.68;95.48;99628.94;10441904;28;20047;-77
2023/08/03 22:14:45;;;;;;;19.48;7.72;;;;;;;14.82;94.27;99633.66;10445777;28;20101;-76
2023/08/03 22:19:49;;;;;;;17.25;8.70;;;;;;;14.70;94.63;99642.28;10446917;28;20129;-76
2023/08/03 22:24:53;;;;;;;18.25;7.70;;;;;;;14.93;92.45;99643.28;10444422;28;20052;-76
2023/08/03 22:29:57;;;;;;;13.50;7.53;;;;;;;14.76;94.05;99660.53;10444391;28;20057;-75
2023/08/03 22:35:00;;;;;;;15.10;7.35;;;;;;;14.99;92.21;99669.66;10448878;28;20880;-76
2023/08/03 22:40:06;;;;;;;15.65;7.55;;;;;;;15.04;91.92;99671.84;10449121;28;20511;-75
2023/08/03 22:45:10;;;;;;;16.75;7.43;;;;;;;15.04;91.14;99674.56;10441561;28;20126;-76
2023/08/03 22:50:13;;;;;;;13.93;7.13;;;;;;;15.02;91.38;99679.28;10440513;28;20052;-75
2023/08/03 22:55:17;;;;;;;17.30;6.68;;;;;;;14.75;92.07;99673.19;10443638;28;20064;-76
2023/08/03 23:00:20;;;;;;;16.27;6.57;;;;;;;14.62;92.01;99670.16;10453923;28;20123;-76
2023/08/03 23:05:23;;;;;;;14.80;6.70;;;;;;;14.58;91.71;99687.72;10440051;28;20049;-76
2023/08/03 23:10:29;;;;;;;18.60;7.05;;;;;;;14.75;91.37;99684.00;10448346;28;20056;-76
2023/08/03 23:15:36;;;;;;;18.95;5.75;;;;;;;14.46;92.02;99707.97;10444677;28;20416;-76
2023/08/03 23:20:39;;;;;;;15.90;6.10;;;;;;;14.13;93.32;99710.56;10442891;28;20048;-76
2023/08/03 23:25:43;;;;;;;12.77;5.57;;;;;;;14.47;91.96;99707.81;10443860;28;21310;-77
2023/08/03 23:30:46;;;;;;;19.17;5.82;;;;;;;14.25;92.14;99714.63;10439566;28;20049;-76